sensor_id;sensor_type;location;lat;lon;timestamp;temperature;humidity
21061;DHT22;10689;50.836;3.266;2023-04-01T00:01:41;10.00;99.90
21061;DHT22;10689;50.836;3.266;2023-04-01T00:04:06;10.00;99.90
21061;DHT22;10689;50.836;3.266;2023-04-01T00:06:32;10.00;99.90
21061;DHT22;10689;50.836;3.266;2023-04-01T00:08:58;10.20;99.90
21061;DHT22;10689;50.836;3.266;2023-04-01T00:11:24;10.20;99.90
21061;DHT22;10689;50.836;3.266;2023-04-01T00:13:53;10.10;99.90
21061;DHT22;10689;50.836;3.266;2023-04-01T00:16:19;10.10;99.90
21061;DHT22;10689;50.836;3.266;2023-04-01T00:18:44;10.10;99.90
21061;DHT22;10689;50.836;3.266;2023-04-01T00:21:13;10.10;99.90
21061;DHT22;10689;50.836;3.266;2023-04-01T00:23:44;10.10;99.90
21061;DHT22;10689;50.836;3.266;2023-04-01T00:26:10;10.10;99.90
21061;DHT22;10689;50.836;3.266;2023-04-01T00:28:37;10.10;99.90
21061;DHT22;10689;50.836;3.266;2023-04-01T00:31:05;10.10;99.90
21061;DHT22;10689;50.836;3.266;2023-04-01T00:33:31;10.10;99.90
21061;DHT22;10689;50.836;3.266;2023-04-01T00:36:09;10.10;99.90
21061;DHT22;10689;50.836;3.266;2023-04-01T00:38:39;10.10;99.90
21061;DHT22;10689;50.836;3.266;2023-04-01T00:41:06;10.00;99.90
21061;DHT22;10689;50.836;3.266;2023-04-01T00:43:33;10.10;99.90
21061;DHT22;10689;50.836;3.266;2023-04-01T00:45:58;10.10;99.90
21061;DHT22;10689;50.836;3.266;2023-04-01T00:48:31;10.10;99.90
21061;DHT22;10689;50.836;3.266;2023-04-01T00:51:05;10.10;99.90
21061;DHT22;10689;50.836;3.266;2023-04-01T00:53:36;10.00;99.90
21061;DHT22;10689;50.836;3.266;2023-04-01T00:58:36;10.10;99.90
21061;DHT22;10689;50.836;3.266;2023-04-01T01:01:02;10.10;99.90
21061;DHT22;10689;50.836;3.266;2023-04-01T01:03:29;10.10;99.90
21061;DHT22;10689;50.836;3.266;2023-04-01T01:06:09;10.10;99.90
21061;DHT22;10689;50.836;3.266;2023-04-01T01:11:45;10.10;99.90
21061;DHT22;10689;50.836;3.266;2023-04-01T01:14:34;10.10;99.90
21061;DHT22;10689;50.836;3.266;2023-04-01T01:34:32;10.00;99.90
21061;DHT22;10689;50.836;3.266;2023-04-01T01:37:32;10.00;99.90
21061;DHT22;10689;50.836;3.266;2023-04-01T01:40:11;9.90;99.90
21061;DHT22;10689;50.836;3.266;2023-04-01T01:42:45;10.00;99.90
21061;DHT22;10689;50.836;3.266;2023-04-01T01:45:18;9.90;99.90
21061;DHT22;10689;50.836;3.266;2023-04-01T01:47:45;9.90;99.90
21061;DHT22;10689;50.836;3.266;2023-04-01T01:50:13;9.90;99.90
21061;DHT22;10689;50.836;3.266;2023-04-01T01:52:43;10.00;99.90
21061;DHT22;10689;50.836;3.266;2023-04-01T01:55:32;9.90;99.90
21061;DHT22;10689;50.836;3.266;2023-04-01T02:00:39;9.90;99.90
21061;DHT22;10689;50.836;3.266;2023-04-01T02:03:17;9.90;99.90
21061;DHT22;10689;50.836;3.266;2023-04-01T02:05:52;9.90;99.90
21061;DHT22;10689;50.836;3.266;2023-04-01T02:08:31;9.90;99.90
21061;DHT22;10689;50.836;3.266;2023-04-01T02:11:10;9.90;99.90
21061;DHT22;10689;50.836;3.266;2023-04-01T02:13:51;9.90;99.90
21061;DHT22;10689;50.836;3.266;2023-04-01T02:16:41;9.90;99.90
21061;DHT22;10689;50.836;3.266;2023-04-01T02:19:13;9.90;99.90
21061;DHT22;10689;50.836;3.266;2023-04-01T02:21:42;10.00;99.90
21061;DHT22;10689;50.836;3.266;2023-04-01T02:24:17;9.90;99.90
21061;DHT22;10689;50.836;3.266;2023-04-01T02:26:47;9.90;99.90
21061;DHT22;10689;50.836;3.266;2023-04-01T02:29:14;9.90;99.90
21061;DHT22;10689;50.836;3.266;2023-04-01T02:31:41;9.90;99.90
21061;DHT22;10689;50.836;3.266;2023-04-01T02:34:08;9.90;99.90
21061;DHT22;10689;50.836;3.266;2023-04-01T02:36:36;9.90;99.90
21061;DHT22;10689;50.836;3.266;2023-04-01T02:39:02;9.90;99.90
21061;DHT22;10689;50.836;3.266;2023-04-01T02:41:29;9.90;99.90
21061;DHT22;10689;50.836;3.266;2023-04-01T02:43:56;9.90;99.90
21061;DHT22;10689;50.836;3.266;2023-04-01T02:46:24;9.90;99.90
21061;DHT22;10689;50.836;3.266;2023-04-01T02:48:50;9.90;99.90
21061;DHT22;10689;50.836;3.266;2023-04-01T02:51:17;9.80;99.90
21061;DHT22;10689;50.836;3.266;2023-04-01T02:53:43;9.90;99.90
21061;DHT22;10689;50.836;3.266;2023-04-01T02:56:10;9.80;99.90
21061;DHT22;10689;50.836;3.266;2023-04-01T02:58:35;9.70;99.90
21061;DHT22;10689;50.836;3.266;2023-04-01T03:01:01;9.70;99.90
21061;DHT22;10689;50.836;3.266;2023-04-01T03:03:28;9.70;99.90
21061;DHT22;10689;50.836;3.266;2023-04-01T03:05:54;9.70;99.90
21061;DHT22;10689;50.836;3.266;2023-04-01T03:08:21;9.70;99.90
21061;DHT22;10689;50.836;3.266;2023-04-01T03:10:48;9.70;99.90
21061;DHT22;10689;50.836;3.266;2023-04-01T03:13:13;9.70;99.90
21061;DHT22;10689;50.836;3.266;2023-04-01T03:15:39;9.60;99.90
21061;DHT22;10689;50.836;3.266;2023-04-01T03:18:05;9.70;99.90
21061;DHT22;10689;50.836;3.266;2023-04-01T03:20:31;9.60;99.90
21061;DHT22;10689;50.836;3.266;2023-04-01T03:22:57;9.60;99.90
21061;DHT22;10689;50.836;3.266;2023-04-01T03:25:23;9.60;99.90
21061;DHT22;10689;50.836;3.266;2023-04-01T03:27:49;9.60;99.90
21061;DHT22;10689;50.836;3.266;2023-04-01T03:30:16;9.60;99.90
21061;DHT22;10689;50.836;3.266;2023-04-01T03:32:42;9.60;99.90
21061;DHT22;10689;50.836;3.266;2023-04-01T03:35:08;9.50;99.90
21061;DHT22;10689;50.836;3.266;2023-04-01T03:37:36;9.50;99.90
21061;DHT22;10689;50.836;3.266;2023-04-01T03:40:05;9.60;99.90
21061;DHT22;10689;50.836;3.266;2023-04-01T03:42:34;9.60;99.90
21061;DHT22;10689;50.836;3.266;2023-04-01T03:45:16;9.60;99.90
21061;DHT22;10689;50.836;3.266;2023-04-01T03:47:42;9.60;99.90
21061;DHT22;10689;50.836;3.266;2023-04-01T03:50:11;9.60;99.90
21061;DHT22;10689;50.836;3.266;2023-04-01T03:52:38;9.50;99.90
21061;DHT22;10689;50.836;3.266;2023-04-01T03:55:07;9.60;99.90
21061;DHT22;10689;50.836;3.266;2023-04-01T03:57:34;9.70;99.90
21061;DHT22;10689;50.836;3.266;2023-04-01T04:00:00;9.60;99.90
21061;DHT22;10689;50.836;3.266;2023-04-01T04:02:28;9.70;99.90
21061;DHT22;10689;50.836;3.266;2023-04-01T04:04:55;9.70;99.90
21061;DHT22;10689;50.836;3.266;2023-04-01T04:07:22;9.70;99.90
21061;DHT22;10689;50.836;3.266;2023-04-01T04:09:48;9.60;99.90
21061;DHT22;10689;50.836;3.266;2023-04-01T04:12:14;9.70;99.90
21061;DHT22;10689;50.836;3.266;2023-04-01T04:14:40;9.70;99.90
21061;DHT22;10689;50.836;3.266;2023-04-01T04:17:06;9.70;99.90
21061;DHT22;10689;50.836;3.266;2023-04-01T04:19:33;9.60;99.90
21061;DHT22;10689;50.836;3.266;2023-04-01T04:21:59;9.60;99.90
21061;DHT22;10689;50.836;3.266;2023-04-01T04:24:26;9.70;99.90
21061;DHT22;10689;50.836;3.266;2023-04-01T04:26:52;9.60;99.90
21061;DHT22;10689;50.836;3.266;2023-04-01T04:29:19;9.60;99.90
21061;DHT22;10689;50.836;3.266;2023-04-01T04:31:48;9.50;99.90
21061;DHT22;10689;50.836;3.266;2023-04-01T04:34:15;9.60;99.90
21061;DHT22;10689;50.836;3.266;2023-04-01T04:36:41;9.50;99.90
21061;DHT22;10689;50.836;3.266;2023-04-01T04:39:06;9.50;99.90
21061;DHT22;10689;50.836;3.266;2023-04-01T04:41:32;9.50;99.90
21061;DHT22;10689;50.836;3.266;2023-04-01T04:43:58;9.60;99.90
21061;DHT22;10689;50.836;3.266;2023-04-01T04:46:24;9.60;99.90
21061;DHT22;10689;50.836;3.266;2023-04-01T04:48:50;9.60;99.90
21061;DHT22;10689;50.836;3.266;2023-04-01T04:51:17;9.60;99.90
21061;DHT22;10689;50.836;3.266;2023-04-01T04:53:44;9.60;99.90
21061;DHT22;10689;50.836;3.266;2023-04-01T04:56:10;9.60;99.90
21061;DHT22;10689;50.836;3.266;2023-04-01T04:58:47;9.60;99.90
21061;DHT22;10689;50.836;3.266;2023-04-01T05:01:14;9.60;99.90
21061;DHT22;10689;50.836;3.266;2023-04-01T05:03:41;9.60;99.90
21061;DHT22;10689;50.836;3.266;2023-04-01T05:06:08;9.60;99.90
21061;DHT22;10689;50.836;3.266;2023-04-01T05:08:36;9.60;99.90
21061;DHT22;10689;50.836;3.266;2023-04-01T05:11:02;9.60;99.90
21061;DHT22;10689;50.836;3.266;2023-04-01T05:13:28;9.60;99.90
21061;DHT22;10689;50.836;3.266;2023-04-01T05:15:55;9.60;99.90
21061;DHT22;10689;50.836;3.266;2023-04-01T05:18:21;9.60;99.90
21061;DHT22;10689;50.836;3.266;2023-04-01T05:20:49;9.60;99.90
21061;DHT22;10689;50.836;3.266;2023-04-01T05:23:15;9.60;99.90
21061;DHT22;10689;50.836;3.266;2023-04-01T05:25:45;9.60;99.90
21061;DHT22;10689;50.836;3.266;2023-04-01T05:28:11;9.60;99.90
21061;DHT22;10689;50.836;3.266;2023-04-01T05:30:40;9.60;99.90
21061;DHT22;10689;50.836;3.266;2023-04-01T05:33:06;9.50;99.90
21061;DHT22;10689;50.836;3.266;2023-04-01T05:35:32;9.50;99.90
21061;DHT22;10689;50.836;3.266;2023-04-01T05:38:10;9.60;99.90
21061;DHT22;10689;50.836;3.266;2023-04-01T05:40:39;9.50;99.90
21061;DHT22;10689;50.836;3.266;2023-04-01T05:43:06;9.60;99.90
21061;DHT22;10689;50.836;3.266;2023-04-01T05:45:32;9.50;99.90
21061;DHT22;10689;50.836;3.266;2023-04-01T05:47:59;9.60;99.90
21061;DHT22;10689;50.836;3.266;2023-04-01T05:50:25;9.60;99.90
21061;DHT22;10689;50.836;3.266;2023-04-01T05:52:51;9.60;99.90
21061;DHT22;10689;50.836;3.266;2023-04-01T05:55:18;9.50;99.90
21061;DHT22;10689;50.836;3.266;2023-04-01T05:57:45;9.60;99.90
21061;DHT22;10689;50.836;3.266;2023-04-01T06:00:12;9.60;99.90
21061;DHT22;10689;50.836;3.266;2023-04-01T06:02:41;9.50;99.90
21061;DHT22;10689;50.836;3.266;2023-04-01T06:05:16;9.50;99.90
21061;DHT22;10689;50.836;3.266;2023-04-01T06:07:43;9.50;99.90
21061;DHT22;10689;50.836;3.266;2023-04-01T06:10:17;9.60;99.90
21061;DHT22;10689;50.836;3.266;2023-04-01T06:15:28;9.50;99.90
21061;DHT22;10689;50.836;3.266;2023-04-01T06:18:20;9.50;99.90
21061;DHT22;10689;50.836;3.266;2023-04-01T06:46:36;9.50;99.90
21061;DHT22;10689;50.836;3.266;2023-04-01T06:49:33;9.60;99.90
21061;DHT22;10689;50.836;3.266;2023-04-01T06:57:55;9.40;99.90
21061;DHT22;10689;50.836;3.266;2023-04-01T07:00:42;9.30;99.90
21061;DHT22;10689;50.836;3.266;2023-04-01T07:06:04;9.40;99.90
21061;DHT22;10689;50.836;3.266;2023-04-01T07:08:35;9.40;99.90
21061;DHT22;10689;50.836;3.266;2023-04-01T07:11:04;9.40;99.90
21061;DHT22;10689;50.836;3.266;2023-04-01T07:13:41;9.40;99.90
21061;DHT22;10689;50.836;3.266;2023-04-01T07:16:11;9.40;99.90
21061;DHT22;10689;50.836;3.266;2023-04-01T07:18:52;9.40;99.90
21061;DHT22;10689;50.836;3.266;2023-04-01T07:21:28;9.40;99.90
21061;DHT22;10689;50.836;3.266;2023-04-01T07:23:59;9.50;99.90
21061;DHT22;10689;50.836;3.266;2023-04-01T07:26:28;9.50;99.90
21061;DHT22;10689;50.836;3.266;2023-04-01T07:28:54;9.50;99.90
21061;DHT22;10689;50.836;3.266;2023-04-01T07:34:18;9.60;99.90
21061;DHT22;10689;50.836;3.266;2023-04-01T07:36:46;9.60;99.90
21061;DHT22;10689;50.836;3.266;2023-04-01T07:48:09;9.60;99.90
21061;DHT22;10689;50.836;3.266;2023-04-01T07:50:40;9.60;99.90
21061;DHT22;10689;50.836;3.266;2023-04-01T07:53:28;9.60;99.90
21061;DHT22;10689;50.836;3.266;2023-04-01T07:56:08;9.60;99.90
21061;DHT22;10689;50.836;3.266;2023-04-01T08:02:20;9.60;99.90
21061;DHT22;10689;50.836;3.266;2023-04-01T08:07:20;9.50;99.90
21061;DHT22;10689;50.836;3.266;2023-04-01T08:10:36;9.50;99.90
21061;DHT22;10689;50.836;3.266;2023-04-01T08:19:00;9.60;99.90
21061;DHT22;10689;50.836;3.266;2023-04-01T08:21:44;9.60;99.90
21061;DHT22;10689;50.836;3.266;2023-04-01T08:26:59;9.80;99.90
21061;DHT22;10689;50.836;3.266;2023-04-01T08:29:42;9.80;99.90
21061;DHT22;10689;50.836;3.266;2023-04-01T08:32:39;9.80;99.90
21061;DHT22;10689;50.836;3.266;2023-04-01T08:38:29;9.80;99.90
21061;DHT22;10689;50.836;3.266;2023-04-01T08:49:56;9.50;99.90
21061;DHT22;10689;50.836;3.266;2023-04-01T09:00:41;9.70;99.90
21061;DHT22;10689;50.836;3.266;2023-04-01T09:25:50;10.00;99.90
21061;DHT22;10689;50.836;3.266;2023-04-01T09:28:28;10.00;99.90
21061;DHT22;10689;50.836;3.266;2023-04-01T09:39:36;9.90;99.90
21061;DHT22;10689;50.836;3.266;2023-04-01T10:45:14;10.20;99.90
21061;DHT22;10689;50.836;3.266;2023-04-01T10:55:54;9.90;99.90
21061;DHT22;10689;50.836;3.266;2023-04-01T11:15:48;10.10;99.90
21061;DHT22;10689;50.836;3.266;2023-04-01T11:29:59;10.30;99.90
21061;DHT22;10689;50.836;3.266;2023-04-01T11:46:25;10.40;99.90
21061;DHT22;10689;50.836;3.266;2023-04-01T11:58:10;10.60;99.90
21061;DHT22;10689;50.836;3.266;2023-04-01T12:03:15;10.70;99.90
21061;DHT22;10689;50.836;3.266;2023-04-01T12:06:14;10.60;99.90
21061;DHT22;10689;50.836;3.266;2023-04-01T12:11:16;10.40;99.90
21061;DHT22;10689;50.836;3.266;2023-04-01T12:30:11;10.60;99.90
21061;DHT22;10689;50.836;3.266;2023-04-01T12:32:40;10.60;99.90
21061;DHT22;10689;50.836;3.266;2023-04-01T12:39:06;10.70;99.90
21061;DHT22;10689;50.836;3.266;2023-04-01T12:47:31;10.40;99.90
21061;DHT22;10689;50.836;3.266;2023-04-01T12:50:23;10.40;99.90
21061;DHT22;10689;50.836;3.266;2023-04-01T12:55:36;10.20;99.90
21061;DHT22;10689;50.836;3.266;2023-04-01T13:01:54;10.20;99.90
21061;DHT22;10689;50.836;3.266;2023-04-01T13:04:53;10.30;99.90
21061;DHT22;10689;50.836;3.266;2023-04-01T13:24:51;10.20;99.90
21061;DHT22;10689;50.836;3.266;2023-04-01T13:35:15;10.00;99.90
21061;DHT22;10689;50.836;3.266;2023-04-01T13:43:36;9.90;99.90
21061;DHT22;10689;50.836;3.266;2023-04-01T13:49:03;9.90;99.90
21061;DHT22;10689;50.836;3.266;2023-04-01T14:11:40;9.90;99.90
21061;DHT22;10689;50.836;3.266;2023-04-01T14:17:44;9.70;99.90
21061;DHT22;10689;50.836;3.266;2023-04-01T14:20:37;9.60;99.90
21061;DHT22;10689;50.836;3.266;2023-04-01T14:31:04;9.70;99.90
21061;DHT22;10689;50.836;3.266;2023-04-01T14:33:50;9.80;99.90
21061;DHT22;10689;50.836;3.266;2023-04-01T14:48:25;9.90;99.90
21061;DHT22;10689;50.836;3.266;2023-04-01T14:50:54;9.80;99.90
21061;DHT22;10689;50.836;3.266;2023-04-01T14:53:31;9.80;99.90
21061;DHT22;10689;50.836;3.266;2023-04-01T14:56:01;9.70;99.90
21061;DHT22;10689;50.836;3.266;2023-04-01T15:06:55;9.80;99.90
21061;DHT22;10689;50.836;3.266;2023-04-01T15:12:16;9.80;99.90
21061;DHT22;10689;50.836;3.266;2023-04-01T15:15:28;9.70;99.90
21061;DHT22;10689;50.836;3.266;2023-04-01T15:23:28;9.80;99.90
21061;DHT22;10689;50.836;3.266;2023-04-01T15:26:31;9.70;99.90
21061;DHT22;10689;50.836;3.266;2023-04-01T15:31:58;9.60;99.90
21061;DHT22;10689;50.836;3.266;2023-04-01T15:35:14;9.50;99.90
21061;DHT22;10689;50.836;3.266;2023-04-01T15:37:37;9.50;99.90
21061;DHT22;10689;50.836;3.266;2023-04-01T15:42:55;9.40;99.90
21061;DHT22;10689;50.836;3.266;2023-04-01T15:45:35;9.40;99.90
21061;DHT22;10689;50.836;3.266;2023-04-01T16:02:32;9.30;99.90
21061;DHT22;10689;50.836;3.266;2023-04-01T16:07:48;9.20;99.90
21061;DHT22;10689;50.836;3.266;2023-04-01T16:13:03;9.30;99.90
21061;DHT22;10689;50.836;3.266;2023-04-01T16:16:23;9.20;99.90
21061;DHT22;10689;50.836;3.266;2023-04-01T16:18:34;9.20;99.90
21061;DHT22;10689;50.836;3.266;2023-04-01T16:21:26;9.20;99.90
21061;DHT22;10689;50.836;3.266;2023-04-01T16:24:00;9.10;99.90
21061;DHT22;10689;50.836;3.266;2023-04-01T16:26:38;9.20;99.90
21061;DHT22;10689;50.836;3.266;2023-04-01T16:32:23;9.20;99.90
21061;DHT22;10689;50.836;3.266;2023-04-01T16:45:42;9.10;99.90
21061;DHT22;10689;50.836;3.266;2023-04-01T16:48:15;9.10;99.90
21061;DHT22;10689;50.836;3.266;2023-04-01T16:51:02;9.00;99.90
21061;DHT22;10689;50.836;3.266;2023-04-01T16:53:49;9.10;99.90
21061;DHT22;10689;50.836;3.266;2023-04-01T16:56:36;9.00;99.90
21061;DHT22;10689;50.836;3.266;2023-04-01T16:59:19;9.00;99.90
21061;DHT22;10689;50.836;3.266;2023-04-01T17:02:09;9.00;99.90
21061;DHT22;10689;50.836;3.266;2023-04-01T17:04:57;9.00;99.90
21061;DHT22;10689;50.836;3.266;2023-04-01T17:11:07;9.00;99.90
21061;DHT22;10689;50.836;3.266;2023-04-01T17:19:42;9.00;99.90
21061;DHT22;10689;50.836;3.266;2023-04-01T17:28:03;9.00;99.90
21061;DHT22;10689;50.836;3.266;2023-04-01T17:30:48;9.10;99.90
21061;DHT22;10689;50.836;3.266;2023-04-01T17:39:40;9.10;99.90
21061;DHT22;10689;50.836;3.266;2023-04-01T17:45:10;9.20;99.90
21061;DHT22;10689;50.836;3.266;2023-04-01T17:47:52;9.20;99.90
21061;DHT22;10689;50.836;3.266;2023-04-01T17:50:46;9.10;99.90
21061;DHT22;10689;50.836;3.266;2023-04-01T17:53:46;9.10;99.90
21061;DHT22;10689;50.836;3.266;2023-04-01T18:02:20;9.20;99.90
21061;DHT22;10689;50.836;3.266;2023-04-01T18:24:06;9.10;99.90
21061;DHT22;10689;50.836;3.266;2023-04-01T18:26:43;9.20;99.90
21061;DHT22;10689;50.836;3.266;2023-04-01T18:29:36;9.10;99.90
21061;DHT22;10689;50.836;3.266;2023-04-01T18:32:26;9.10;99.90
21061;DHT22;10689;50.836;3.266;2023-04-01T18:37:45;9.10;99.90
21061;DHT22;10689;50.836;3.266;2023-04-01T18:43:30;9.10;99.90
21061;DHT22;10689;50.836;3.266;2023-04-01T18:50:07;9.00;99.90
21061;DHT22;10689;50.836;3.266;2023-04-01T18:52:48;9.00;99.90
21061;DHT22;10689;50.836;3.266;2023-04-01T18:55:55;9.00;99.90
21061;DHT22;10689;50.836;3.266;2023-04-01T19:25:42;9.10;99.90
21061;DHT22;10689;50.836;3.266;2023-04-01T19:28:36;9.00;99.90
21061;DHT22;10689;50.836;3.266;2023-04-01T19:37:31;9.00;99.90
21061;DHT22;10689;50.836;3.266;2023-04-01T19:43:41;9.10;99.90
21061;DHT22;10689;50.836;3.266;2023-04-01T19:52:30;9.00;99.90
21061;DHT22;10689;50.836;3.266;2023-04-01T19:58:17;8.90;99.90
21061;DHT22;10689;50.836;3.266;2023-04-01T20:00:59;8.90;99.90
21061;DHT22;10689;50.836;3.266;2023-04-01T20:03:54;8.90;99.90
21061;DHT22;10689;50.836;3.266;2023-04-01T20:19:08;8.90;99.90
21061;DHT22;10689;50.836;3.266;2023-04-01T20:21:46;8.90;99.90
21061;DHT22;10689;50.836;3.266;2023-04-01T20:27:09;8.90;99.90
21061;DHT22;10689;50.836;3.266;2023-04-01T20:33:10;9.00;99.90
21061;DHT22;10689;50.836;3.266;2023-04-01T20:41:25;8.90;99.90
21061;DHT22;10689;50.836;3.266;2023-04-01T20:44:54;8.90;99.90
21061;DHT22;10689;50.836;3.266;2023-04-01T21:13:59;8.70;99.90
21061;DHT22;10689;50.836;3.266;2023-04-01T21:26:19;8.70;99.90
21061;DHT22;10689;50.836;3.266;2023-04-01T21:32:33;8.50;99.90
21061;DHT22;10689;50.836;3.266;2023-04-01T22:20:59;8.50;99.90
21061;DHT22;10689;50.836;3.266;2023-04-01T22:23:08;8.50;99.90
21061;DHT22;10689;50.836;3.266;2023-04-01T22:25:46;8.50;99.90
21061;DHT22;10689;50.836;3.266;2023-04-01T22:28:29;8.60;99.90
21061;DHT22;10689;50.836;3.266;2023-04-01T22:31:26;8.50;99.90
21061;DHT22;10689;50.836;3.266;2023-04-01T22:34:28;8.50;99.90
21061;DHT22;10689;50.836;3.266;2023-04-01T22:37:51;8.50;99.90
21061;DHT22;10689;50.836;3.266;2023-04-01T22:40:00;8.50;99.90
21061;DHT22;10689;50.836;3.266;2023-04-01T22:56:01;8.70;99.90
21061;DHT22;10689;50.836;3.266;2023-04-01T22:58:50;8.70;99.90
21061;DHT22;10689;50.836;3.266;2023-04-01T23:01:24;8.60;99.90
21061;DHT22;10689;50.836;3.266;2023-04-01T23:04:11;8.60;99.90
21061;DHT22;10689;50.836;3.266;2023-04-01T23:06:51;8.70;99.90
21061;DHT22;10689;50.836;3.266;2023-04-01T23:09:25;8.60;99.90
21061;DHT22;10689;50.836;3.266;2023-04-01T23:11:59;8.60;99.90
21061;DHT22;10689;50.836;3.266;2023-04-01T23:14:52;8.60;99.90
21061;DHT22;10689;50.836;3.266;2023-04-01T23:25:46;8.60;99.90
21061;DHT22;10689;50.836;3.266;2023-04-01T23:28:36;8.60;99.90
21061;DHT22;10689;50.836;3.266;2023-04-01T23:37:09;8.70;99.90
21061;DHT22;10689;50.836;3.266;2023-04-01T23:39:42;8.70;99.90
21061;DHT22;10689;50.836;3.266;2023-04-01T23:44:41;8.60;99.90
21061;DHT22;10689;50.836;3.266;2023-04-01T23:47:12;8.70;99.90
21061;DHT22;10689;50.836;3.266;2023-04-01T23:49:43;8.70;99.90
21061;DHT22;10689;50.836;3.266;2023-04-01T23:52:16;8.70;99.90
21061;DHT22;10689;50.836;3.266;2023-04-01T23:57:34;8.80;99.90
